sensor_id;sensor_type;location;lat;lon;timestamp;pressure;altitude;pressure_sealevel;temperature;humidity
53932;BME280;39844;52.496;13.482;2023-05-10T00:01:24;101022.56;;;12.94;51.85
53932;BME280;39844;52.496;13.482;2023-05-10T00:03:49;101023.47;;;12.93;52.14
53932;BME280;39844;52.496;13.482;2023-05-10T00:06:14;101014.72;;;12.88;52.10
53932;BME280;39844;52.496;13.482;2023-05-10T00:08:40;101013.88;;;12.85;52.34
53932;BME280;39844;52.496;13.482;2023-05-10T00:11:05;101017.44;;;12.81;52.46
53932;BME280;39844;52.496;13.482;2023-05-10T00:13:31;101019.19;;;12.77;52.86
53932;BME280;39844;52.496;13.482;2023-05-10T00:15:56;101013.09;;;12.74;52.64
53932;BME280;39844;52.496;13.482;2023-05-10T00:18:21;101008.72;;;12.69;52.97
53932;BME280;39844;52.496;13.482;2023-05-10T00:20:47;101012.28;;;12.65;53.05
53932;BME280;39844;52.496;13.482;2023-05-10T00:23:12;101008.81;;;12.60;52.94
53932;BME280;39844;52.496;13.482;2023-05-10T00:25:37;101001.81;;;12.56;53.19
53932;BME280;39844;52.496;13.482;2023-05-10T00:28:03;101002.72;;;12.52;53.34
53932;BME280;39844;52.496;13.482;2023-05-10T00:30:28;100999.22;;;12.49;53.23
53932;BME280;39844;52.496;13.482;2023-05-10T00:32:53;100998.41;;;12.45;53.05
53932;BME280;39844;52.496;13.482;2023-05-10T00:35:18;100998.41;;;12.42;53.03
53932;BME280;39844;52.496;13.482;2023-05-10T00:37:44;100985.28;;;12.38;53.05
53932;BME280;39844;52.496;13.482;2023-05-10T00:40:09;100989.69;;;12.34;53.44
53932;BME280;39844;52.496;13.482;2023-05-10T00:42:35;100996.75;;;12.29;53.49
53932;BME280;39844;52.496;13.482;2023-05-10T00:45:00;100989.75;;;12.25;53.67
53932;BME280;39844;52.496;13.482;2023-05-10T00:47:26;100984.53;;;12.19;53.87
53932;BME280;39844;52.496;13.482;2023-05-10T00:49:51;100984.53;;;12.16;53.98
53932;BME280;39844;52.496;13.482;2023-05-10T00:52:16;100976.66;;;12.13;54.16
53932;BME280;39844;52.496;13.482;2023-05-10T00:54:42;100981.06;;;12.08;54.20
53932;BME280;39844;52.496;13.482;2023-05-10T00:57:07;100980.25;;;12.04;54.45
53932;BME280;39844;52.496;13.482;2023-05-10T00:59:33;100974.97;;;12.00;54.46
53932;BME280;39844;52.496;13.482;2023-05-10T01:01:58;100973.25;;;11.97;54.82
53932;BME280;39844;52.496;13.482;2023-05-10T01:04:23;100972.38;;;11.92;55.04
53932;BME280;39844;52.496;13.482;2023-05-10T01:06:49;100969.81;;;11.89;55.26
53932;BME280;39844;52.496;13.482;2023-05-10T01:09:14;100969.81;;;11.83;55.31
53932;BME280;39844;52.496;13.482;2023-05-10T01:11:40;100962.84;;;11.79;55.60
53932;BME280;39844;52.496;13.482;2023-05-10T01:14:06;100970.75;;;11.76;55.70
53932;BME280;39844;52.496;13.482;2023-05-10T01:16:36;100960.25;;;11.72;55.85
53932;BME280;39844;52.496;13.482;2023-05-10T01:19:04;100960.25;;;11.69;56.03
53932;BME280;39844;52.496;13.482;2023-05-10T01:22:01;100958.47;;;11.65;56.03
53932;BME280;39844;52.496;13.482;2023-05-10T01:24:36;100962.91;;;11.61;56.10
53932;BME280;39844;52.496;13.482;2023-05-10T01:27:28;100959.41;;;11.56;56.62
53932;BME280;39844;52.496;13.482;2023-05-10T01:35:43;100953.31;;;11.42;56.81
53932;BME280;39844;52.496;13.482;2023-05-10T01:41:34;100956.88;;;11.33;57.65
53932;BME280;39844;52.496;13.482;2023-05-10T01:46:57;100949.84;;;11.26;57.75
53932;BME280;39844;52.496;13.482;2023-05-10T01:49:31;100952.50;;;11.25;57.87
53932;BME280;39844;52.496;13.482;2023-05-10T01:52:03;100949.03;;;11.20;58.01
53932;BME280;39844;52.496;13.482;2023-05-10T01:54:32;100954.28;;;11.18;58.13
53932;BME280;39844;52.496;13.482;2023-05-10T01:57:08;100944.66;;;11.13;58.40
53932;BME280;39844;52.496;13.482;2023-05-10T01:59:35;100945.53;;;11.12;58.38
53932;BME280;39844;52.496;13.482;2023-05-10T02:02:02;100943.78;;;11.09;58.33
53932;BME280;39844;52.496;13.482;2023-05-10T02:04:30;100942.94;;;11.07;58.73
53932;BME280;39844;52.496;13.482;2023-05-10T02:06:56;100948.19;;;11.06;58.64
53932;BME280;39844;52.496;13.482;2023-05-10T02:09:23;100947.28;;;11.04;58.79
53932;BME280;39844;52.496;13.482;2023-05-10T02:11:51;100943.81;;;11.02;58.84
53932;BME280;39844;52.496;13.482;2023-05-10T02:14:18;100945.56;;;11.00;59.09
53932;BME280;39844;52.496;13.482;2023-05-10T02:16:44;100941.19;;;10.97;59.03
53932;BME280;39844;52.496;13.482;2023-05-10T02:19:10;100942.06;;;10.96;59.10
53932;BME280;39844;52.496;13.482;2023-05-10T02:21:39;100949.97;;;10.95;59.15
53932;BME280;39844;52.496;13.482;2023-05-10T02:24:05;100937.69;;;10.94;59.27
53932;BME280;39844;52.496;13.482;2023-05-10T02:26:32;100936.84;;;10.93;59.20
53932;BME280;39844;52.496;13.482;2023-05-10T02:29:00;100930.69;;;10.91;59.03
53932;BME280;39844;52.496;13.482;2023-05-10T02:31:26;100939.47;;;10.90;59.13
53932;BME280;39844;52.496;13.482;2023-05-10T02:33:53;100930.69;;;10.88;59.21
53932;BME280;39844;52.496;13.482;2023-05-10T02:36:20;100929.81;;;10.86;59.47
53932;BME280;39844;52.496;13.482;2023-05-10T02:38:46;100930.72;;;10.85;59.31
53932;BME280;39844;52.496;13.482;2023-05-10T02:41:12;100931.59;;;10.83;59.34
53932;BME280;39844;52.496;13.482;2023-05-10T02:43:40;100934.22;;;10.81;59.47
53932;BME280;39844;52.496;13.482;2023-05-10T02:46:05;100924.59;;;10.77;59.44
53932;BME280;39844;52.496;13.482;2023-05-10T02:48:31;100929.00;;;10.75;59.45
53932;BME280;39844;52.496;13.482;2023-05-10T02:51:00;100929.84;;;10.74;59.68
53932;BME280;39844;52.496;13.482;2023-05-10T02:53:35;100926.38;;;10.72;59.84
53932;BME280;39844;52.496;13.482;2023-05-10T02:56:16;100930.75;;;10.70;59.72
53932;BME280;39844;52.496;13.482;2023-05-10T02:58:45;100929.84;;;10.68;59.68
53932;BME280;39844;52.496;13.482;2023-05-10T03:01:10;100930.75;;;10.67;59.81
53932;BME280;39844;52.496;13.482;2023-05-10T03:03:35;100928.97;;;10.66;59.59
53932;BME280;39844;52.496;13.482;2023-05-10T03:06:01;100930.75;;;10.64;59.83
53932;BME280;39844;52.496;13.482;2023-05-10T03:08:26;100929.88;;;10.62;59.69
53932;BME280;39844;52.496;13.482;2023-05-10T03:13:39;100933.34;;;10.58;59.94
53932;BME280;39844;52.496;13.482;2023-05-10T03:16:19;100922.88;;;10.55;59.81
53932;BME280;39844;52.496;13.482;2023-05-10T03:19:02;100934.25;;;10.54;59.95
53932;BME280;39844;52.496;13.482;2023-05-10T03:21:31;100923.75;;;10.51;59.93
53932;BME280;39844;52.496;13.482;2023-05-10T03:24:07;100930.75;;;10.49;59.99
53932;BME280;39844;52.496;13.482;2023-05-10T03:26:34;100922.00;;;10.48;60.17
53932;BME280;39844;52.496;13.482;2023-05-10T03:29:00;100928.16;;;10.47;60.19
53932;BME280;39844;52.496;13.482;2023-05-10T03:31:26;100923.75;;;10.46;60.16
53932;BME280;39844;52.496;13.482;2023-05-10T03:33:52;100929.88;;;10.45;60.43
53932;BME280;39844;52.496;13.482;2023-05-10T03:36:18;100921.13;;;10.43;60.32
53932;BME280;39844;52.496;13.482;2023-05-10T03:38:44;100922.88;;;10.43;60.41
53932;BME280;39844;52.496;13.482;2023-05-10T03:41:09;100922.88;;;10.43;60.42
53932;BME280;39844;52.496;13.482;2023-05-10T03:43:35;100922.00;;;10.41;60.52
53932;BME280;39844;52.496;13.482;2023-05-10T03:46:04;100913.25;;;10.40;60.20
53932;BME280;39844;52.496;13.482;2023-05-10T03:48:30;100922.88;;;10.41;60.41
53932;BME280;39844;52.496;13.482;2023-05-10T03:50:55;100909.78;;;10.40;60.46
53932;BME280;39844;52.496;13.482;2023-05-10T03:53:20;100920.28;;;10.40;60.40
53932;BME280;39844;52.496;13.482;2023-05-10T03:55:46;100918.50;;;10.40;60.34
53932;BME280;39844;52.496;13.482;2023-05-10T03:58:11;100920.25;;;10.41;60.48
53932;BME280;39844;52.496;13.482;2023-05-10T04:00:37;100920.25;;;10.43;60.29
53932;BME280;39844;52.496;13.482;2023-05-10T04:03:02;100931.63;;;10.43;60.14
53932;BME280;39844;52.496;13.482;2023-05-10T04:05:27;100918.53;;;10.45;60.47
53932;BME280;39844;52.496;13.482;2023-05-10T04:07:53;100926.38;;;10.46;60.46
53932;BME280;39844;52.496;13.482;2023-05-10T04:10:18;100927.25;;;10.47;60.13
53932;BME280;39844;52.496;13.482;2023-05-10T04:12:43;100927.28;;;10.50;60.13
53932;BME280;39844;52.496;13.482;2023-05-10T04:15:09;100918.53;;;10.52;60.08
53932;BME280;39844;52.496;13.482;2023-05-10T04:17:34;100917.63;;;10.55;60.06
53932;BME280;39844;52.496;13.482;2023-05-10T04:19:59;100918.50;;;10.57;59.96
53932;BME280;39844;52.496;13.482;2023-05-10T04:22:25;100913.25;;;10.60;59.66
53932;BME280;39844;52.496;13.482;2023-05-10T04:24:50;100909.75;;;10.64;59.41
53932;BME280;39844;52.496;13.482;2023-05-10T04:27:15;100911.47;;;10.68;59.38
53932;BME280;39844;52.496;13.482;2023-05-10T04:29:41;100908.84;;;10.71;59.55
53932;BME280;39844;52.496;13.482;2023-05-10T04:32:06;100909.72;;;10.74;59.18
53932;BME280;39844;52.496;13.482;2023-05-10T04:34:34;100911.47;;;10.80;59.12
53932;BME280;39844;52.496;13.482;2023-05-10T04:37:00;100907.09;;;10.82;59.02
53932;BME280;39844;52.496;13.482;2023-05-10T04:39:25;100905.31;;;10.87;59.03
53932;BME280;39844;52.496;13.482;2023-05-10T04:41:50;100907.94;;;10.90;58.73
53932;BME280;39844;52.496;13.482;2023-05-10T04:44:15;100907.06;;;10.96;59.01
53932;BME280;39844;52.496;13.482;2023-05-10T04:46:41;100910.56;;;11.01;58.79
53932;BME280;39844;52.496;13.482;2023-05-10T04:49:06;100911.41;;;11.07;58.54
53932;BME280;39844;52.496;13.482;2023-05-10T04:51:31;100909.63;;;11.12;58.58
53932;BME280;39844;52.496;13.482;2023-05-10T04:53:57;100901.75;;;11.18;58.63
53932;BME280;39844;52.496;13.482;2023-05-10T04:56:22;100902.56;;;11.26;58.34
53932;BME280;39844;52.496;13.482;2023-05-10T04:58:47;100903.44;;;11.33;58.20
53932;BME280;39844;52.496;13.482;2023-05-10T05:01:13;100907.75;;;11.41;57.95
53932;BME280;39844;52.496;13.482;2023-05-10T05:03:38;100899.88;;;11.49;57.63
53932;BME280;39844;52.496;13.482;2023-05-10T05:06:04;100900.69;;;11.59;57.34
53932;BME280;39844;52.496;13.482;2023-05-10T05:08:29;100899.75;;;11.66;57.28
53932;BME280;39844;52.496;13.482;2023-05-10T05:10:54;100903.25;;;11.74;57.03
53932;BME280;39844;52.496;13.482;2023-05-10T05:13:19;100903.22;;;11.81;57.26
53932;BME280;39844;52.496;13.482;2023-05-10T05:15:45;100897.03;;;11.87;57.02
53932;BME280;39844;52.496;13.482;2023-05-10T05:18:10;100893.47;;;11.95;56.88
53932;BME280;39844;52.496;13.482;2023-05-10T05:20:35;100894.31;;;12.02;56.46
53932;BME280;39844;52.496;13.482;2023-05-10T05:23:01;100893.38;;;12.09;56.24
53932;BME280;39844;52.496;13.482;2023-05-10T05:25:26;100886.28;;;12.17;55.93
53932;BME280;39844;52.496;13.482;2023-05-10T05:27:51;100885.31;;;12.26;55.52
53932;BME280;39844;52.496;13.482;2023-05-10T05:30:17;100886.16;;;12.34;55.31
53932;BME280;39844;52.496;13.482;2023-05-10T05:32:42;100888.72;;;12.43;55.60
53932;BME280;39844;52.496;13.482;2023-05-10T05:35:08;100879.88;;;12.50;55.22
53932;BME280;39844;52.496;13.482;2023-05-10T05:37:33;100883.31;;;12.58;55.24
53932;BME280;39844;52.496;13.482;2023-05-10T05:39:58;100885.88;;;12.65;54.78
53932;BME280;39844;52.496;13.482;2023-05-10T05:42:24;100886.66;;;12.72;54.91
53932;BME280;39844;52.496;13.482;2023-05-10T05:44:49;100888.34;;;12.79;54.92
53932;BME280;39844;52.496;13.482;2023-05-10T05:47:14;100882.13;;;12.88;54.46
53932;BME280;39844;52.496;13.482;2023-05-10T05:49:40;100884.66;;;12.95;54.47
53932;BME280;39844;52.496;13.482;2023-05-10T05:52:05;100867.88;;;13.04;53.80
53932;BME280;39844;52.496;13.482;2023-05-10T05:54:31;100881.84;;;13.13;53.88
53932;BME280;39844;52.496;13.482;2023-05-10T05:56:59;100869.47;;;13.21;53.71
53932;BME280;39844;52.496;13.482;2023-05-10T05:59:25;100871.97;;;13.30;53.28
53932;BME280;39844;52.496;13.482;2023-05-10T06:01:50;100876.25;;;13.38;53.37
53932;BME280;39844;52.496;13.482;2023-05-10T06:04:16;100874.41;;;13.47;52.72
53932;BME280;39844;52.496;13.482;2023-05-10T06:06:42;100876.06;;;13.54;52.92
53932;BME280;39844;52.496;13.482;2023-05-10T06:09:07;100872.41;;;13.63;52.66
53932;BME280;39844;52.496;13.482;2023-05-10T06:11:32;100874.00;;;13.73;51.97
53932;BME280;39844;52.496;13.482;2023-05-10T06:13:58;100870.38;;;13.81;51.78
53932;BME280;39844;52.496;13.482;2023-05-10T06:16:23;100882.53;;;13.91;51.45
53932;BME280;39844;52.496;13.482;2023-05-10T06:18:49;100882.41;;;13.99;51.38
53932;BME280;39844;52.496;13.482;2023-05-10T06:21:14;100878.81;;;14.05;51.41
53932;BME280;39844;52.496;13.482;2023-05-10T06:23:39;100880.50;;;14.09;51.51
53932;BME280;39844;52.496;13.482;2023-05-10T06:26:05;100871.66;;;14.13;51.63
53932;BME280;39844;52.496;13.482;2023-05-10T06:28:30;100871.53;;;14.19;51.08
53932;BME280;39844;52.496;13.482;2023-05-10T06:30:55;100874.09;;;14.25;50.75
53932;BME280;39844;52.496;13.482;2023-05-10T06:33:20;100875.75;;;14.30;50.97
53932;BME280;39844;52.496;13.482;2023-05-10T06:35:46;100873.06;;;14.35;50.92
53932;BME280;39844;52.496;13.482;2023-05-10T06:38:11;100882.66;;;14.40;50.72
53932;BME280;39844;52.496;13.482;2023-05-10T06:40:36;100874.66;;;14.46;50.73
53932;BME280;39844;52.496;13.482;2023-05-10T06:43:02;100871.09;;;14.49;50.98
53932;BME280;39844;52.496;13.482;2023-05-10T06:45:27;100875.41;;;14.53;50.36
53932;BME280;39844;52.496;13.482;2023-05-10T06:47:52;100877.06;;;14.59;50.85
53932;BME280;39844;52.496;13.482;2023-05-10T06:50:17;100876.09;;;14.63;50.38
53932;BME280;39844;52.496;13.482;2023-05-10T06:52:43;100878.66;;;14.69;50.43
53932;BME280;39844;52.496;13.482;2023-05-10T06:55:08;100877.72;;;14.71;50.24
53932;BME280;39844;52.496;13.482;2023-05-10T06:57:34;100879.38;;;14.77;50.58
53932;BME280;39844;52.496;13.482;2023-05-10T06:59:59;100877.53;;;14.80;51.20
53932;BME280;39844;52.496;13.482;2023-05-10T07:02:24;100865.09;;;14.85;50.43
53932;BME280;39844;52.496;13.482;2023-05-10T07:04:52;100869.41;;;14.91;50.38
53932;BME280;39844;52.496;13.482;2023-05-10T07:07:18;100870.19;;;14.97;50.11
53932;BME280;39844;52.496;13.482;2023-05-10T07:09:43;100864.81;;;15.00;50.12
53932;BME280;39844;52.496;13.482;2023-05-10T07:12:08;100864.75;;;15.03;50.48
53932;BME280;39844;52.496;13.482;2023-05-10T07:14:33;100870.84;;;15.07;50.41
53932;BME280;39844;52.496;13.482;2023-05-10T07:16:59;100864.59;;;15.12;50.56
53932;BME280;39844;52.496;13.482;2023-05-10T07:19:24;100857.47;;;15.14;50.20
53932;BME280;39844;52.496;13.482;2023-05-10T07:21:50;100857.44;;;15.16;50.58
53932;BME280;39844;52.496;13.482;2023-05-10T07:24:15;100855.63;;;15.18;50.70
53932;BME280;39844;52.496;13.482;2023-05-10T07:26:40;100857.31;;;15.22;50.57
53932;BME280;39844;52.496;13.482;2023-05-10T07:29:05;100859.81;;;15.28;50.55
53932;BME280;39844;52.496;13.482;2023-05-10T07:31:31;100857.00;;;15.36;50.46
53932;BME280;39844;52.496;13.482;2023-05-10T07:33:56;100855.09;;;15.44;50.24
53932;BME280;39844;52.496;13.482;2023-05-10T07:36:21;100859.41;;;15.51;50.16
53932;BME280;39844;52.496;13.482;2023-05-10T07:38:47;100853.84;;;15.61;50.47
53932;BME280;39844;52.496;13.482;2023-05-10T07:41:12;100853.66;;;15.69;49.99
53932;BME280;39844;52.496;13.482;2023-05-10T07:43:37;100854.38;;;15.77;49.82
53932;BME280;39844;52.496;13.482;2023-05-10T07:46:03;100863.06;;;15.84;49.78
53932;BME280;39844;52.496;13.482;2023-05-10T07:48:28;100852.34;;;15.88;49.19
53932;BME280;39844;52.496;13.482;2023-05-10T07:50:53;100861.13;;;15.90;49.40
53932;BME280;39844;52.496;13.482;2023-05-10T07:53:19;100854.88;;;15.93;48.53
53932;BME280;39844;52.496;13.482;2023-05-10T07:55:50;100849.47;;;15.97;48.61
53932;BME280;39844;52.496;13.482;2023-05-10T07:58:15;100844.94;;;16.02;48.87
53932;BME280;39844;52.496;13.482;2023-05-10T08:00:40;100835.84;;;16.12;48.48
53932;BME280;39844;52.496;13.482;2023-05-10T08:03:06;100848.06;;;16.19;48.35
53932;BME280;39844;52.496;13.482;2023-05-10T08:05:31;100848.75;;;16.26;47.91
53932;BME280;39844;52.496;13.482;2023-05-10T08:07:56;100848.63;;;16.30;47.63
53932;BME280;39844;52.496;13.482;2023-05-10T08:10:22;100852.03;;;16.35;47.97
53932;BME280;39844;52.496;13.482;2023-05-10T08:12:47;100847.50;;;16.40;48.03
53932;BME280;39844;52.496;13.482;2023-05-10T08:15:12;100851.78;;;16.46;48.34
53932;BME280;39844;52.496;13.482;2023-05-10T08:17:37;100849.00;;;16.51;47.96
53932;BME280;39844;52.496;13.482;2023-05-10T08:20:03;100842.78;;;16.53;47.14
53932;BME280;39844;52.496;13.482;2023-05-10T08:22:28;100839.03;;;16.60;47.31
53932;BME280;39844;52.496;13.482;2023-05-10T08:24:54;100841.53;;;16.66;47.12
53932;BME280;39844;52.496;13.482;2023-05-10T08:27:19;100841.34;;;16.74;47.48
53932;BME280;39844;52.496;13.482;2023-05-10T08:29:44;100839.50;;;16.76;46.76
53932;BME280;39844;52.496;13.482;2023-05-10T08:32:10;100836.69;;;16.82;46.28
53932;BME280;39844;52.496;13.482;2023-05-10T08:34:35;100840.09;;;16.87;45.75
53932;BME280;39844;52.496;13.482;2023-05-10T08:37:00;100838.25;;;16.89;46.15
53932;BME280;39844;52.496;13.482;2023-05-10T08:39:25;100843.50;;;16.92;46.42
53932;BME280;39844;52.496;13.482;2023-05-10T08:41:53;100846.97;;;16.94;46.84
53932;BME280;39844;52.496;13.482;2023-05-10T08:44:23;100844.16;;;17.00;47.33
53932;BME280;39844;52.496;13.482;2023-05-10T08:46:51;100842.22;;;17.05;47.21
53932;BME280;39844;52.496;13.482;2023-05-10T08:49:19;100850.00;;;17.11;46.60
53932;BME280;39844;52.496;13.482;2023-05-10T08:51:49;100847.25;;;17.14;46.18
53932;BME280;39844;52.496;13.482;2023-05-10T08:54:15;100847.19;;;17.17;46.37
53932;BME280;39844;52.496;13.482;2023-05-10T08:56:40;100842.66;;;17.21;46.19
53932;BME280;39844;52.496;13.482;2023-05-10T08:59:06;100846.06;;;17.24;45.36
53932;BME280;39844;52.496;13.482;2023-05-10T09:01:32;100858.28;;;17.31;45.84
53932;BME280;39844;52.496;13.482;2023-05-10T09:04:00;100847.53;;;17.34;45.19
53932;BME280;39844;52.496;13.482;2023-05-10T09:06:25;100847.38;;;17.40;45.72
53932;BME280;39844;52.496;13.482;2023-05-10T09:08:51;100850.69;;;17.47;45.65
53932;BME280;39844;52.496;13.482;2023-05-10T09:11:17;100849.75;;;17.49;45.06
53932;BME280;39844;52.496;13.482;2023-05-10T09:13:42;100847.00;;;17.54;45.13
53932;BME280;39844;52.496;13.482;2023-05-10T09:16:08;100852.97;;;17.60;45.76
53932;BME280;39844;52.496;13.482;2023-05-10T09:18:34;100846.66;;;17.64;44.80
53932;BME280;39844;52.496;13.482;2023-05-10T09:20:59;100850.97;;;17.68;44.89
53932;BME280;39844;52.496;13.482;2023-05-10T09:23:24;100855.25;;;17.73;44.67
53932;BME280;39844;52.496;13.482;2023-05-10T09:26:04;100857.72;;;17.79;44.08
53932;BME280;39844;52.496;13.482;2023-05-10T09:28:56;100844.16;;;17.88;44.15
53932;BME280;39844;52.496;13.482;2023-05-10T09:31:22;100838.56;;;17.97;44.18
53932;BME280;39844;52.496;13.482;2023-05-10T09:33:48;100851.53;;;18.06;44.24
53932;BME280;39844;52.496;13.482;2023-05-10T09:36:15;100850.47;;;18.11;43.98
53932;BME280;39844;52.496;13.482;2023-05-10T09:38:48;100860.91;;;18.17;43.32
53932;BME280;39844;52.496;13.482;2023-05-10T09:43:43;100858.72;;;18.30;45.18
53932;BME280;39844;52.496;13.482;2023-05-10T09:46:09;100850.56;;;18.35;43.57
53932;BME280;39844;52.496;13.482;2023-05-10T09:48:34;100853.88;;;18.41;43.32
53932;BME280;39844;52.496;13.482;2023-05-10T09:50:59;100850.47;;;18.64;44.05
53932;BME280;39844;52.496;13.482;2023-05-10T09:53:24;100851.47;;;18.86;42.51
53932;BME280;39844;52.496;13.482;2023-05-10T09:55:50;100859.22;;;19.15;42.41
53932;BME280;39844;52.496;13.482;2023-05-10T09:58:15;100850.19;;;19.44;41.10
53932;BME280;39844;52.496;13.482;2023-05-10T10:00:42;100844.34;;;19.79;41.01
53932;BME280;39844;52.496;13.482;2023-05-10T10:03:19;100847.13;;;20.19;39.73
53932;BME280;39844;52.496;13.482;2023-05-10T10:05:46;100857.88;;;20.60;39.62
53932;BME280;39844;52.496;13.482;2023-05-10T10:08:11;100853.47;;;20.99;39.19
53932;BME280;39844;52.496;13.482;2023-05-10T10:10:37;100841.72;;;21.23;37.87
53932;BME280;39844;52.496;13.482;2023-05-10T10:13:02;100841.25;;;21.53;37.73
53932;BME280;39844;52.496;13.482;2023-05-10T10:15:28;100838.84;;;21.84;36.83
53932;BME280;39844;52.496;13.482;2023-05-10T10:17:54;100835.13;;;22.05;36.67
53932;BME280;39844;52.496;13.482;2023-05-10T10:20:20;100843.84;;;22.44;37.36
53932;BME280;39844;52.496;13.482;2023-05-10T10:22:47;100829.34;;;23.00;36.60
53932;BME280;39844;52.496;13.482;2023-05-10T10:25:15;100818.53;;;23.34;35.03
53932;BME280;39844;52.496;13.482;2023-05-10T10:32:59;100822.53;;;24.21;32.65
53932;BME280;39844;52.496;13.482;2023-05-10T10:35:28;100816.50;;;24.47;32.85
53932;BME280;39844;52.496;13.482;2023-05-10T10:37:54;100806.53;;;24.79;32.25
53932;BME280;39844;52.496;13.482;2023-05-10T10:40:30;100819.09;;;24.92;31.51
53932;BME280;39844;52.496;13.482;2023-05-10T10:42:56;100814.31;;;25.26;31.95
53932;BME280;39844;52.496;13.482;2023-05-10T10:45:23;100822.94;;;25.59;31.83
53932;BME280;39844;52.496;13.482;2023-05-10T10:48:19;100814.44;;;25.93;31.04
53932;BME280;39844;52.496;13.482;2023-05-10T10:50:45;100825.41;;;26.17;30.54
53932;BME280;39844;52.496;13.482;2023-05-10T10:53:10;100815.94;;;26.24;30.73
53932;BME280;39844;52.496;13.482;2023-05-10T10:55:45;100821.63;;;26.46;31.27
53932;BME280;39844;52.496;13.482;2023-05-10T10:58:29;100819.16;;;26.68;31.17
53932;BME280;39844;52.496;13.482;2023-05-10T11:01:12;100817.94;;;26.86;30.02
53932;BME280;39844;52.496;13.482;2023-05-10T11:03:38;100809.28;;;27.19;30.25
53932;BME280;39844;52.496;13.482;2023-05-10T11:06:03;100799.13;;;27.35;28.56
53932;BME280;39844;52.496;13.482;2023-05-10T11:08:34;100809.69;;;27.38;29.18
53932;BME280;39844;52.496;13.482;2023-05-10T11:15:56;100796.97;;;28.13;27.50
53932;BME280;39844;52.496;13.482;2023-05-10T11:18:29;100798.13;;;28.33;27.08
53932;BME280;39844;52.496;13.482;2023-05-10T11:21:01;100803.22;;;28.37;26.82
53932;BME280;39844;52.496;13.482;2023-05-10T11:25:56;100797.69;;;28.62;27.87
53932;BME280;39844;52.496;13.482;2023-05-10T11:28:21;100800.13;;;28.65;28.78
53932;BME280;39844;52.496;13.482;2023-05-10T11:30:47;100797.53;;;28.64;28.33
53932;BME280;39844;52.496;13.482;2023-05-10T11:33:16;100791.56;;;28.83;28.50
53932;BME280;39844;52.496;13.482;2023-05-10T11:35:42;100788.97;;;28.70;28.13
53932;BME280;39844;52.496;13.482;2023-05-10T11:38:11;100794.16;;;28.60;27.58
53932;BME280;39844;52.496;13.482;2023-05-10T11:40:38;100795.47;;;28.78;28.17
53932;BME280;39844;52.496;13.482;2023-05-10T11:43:04;100783.81;;;29.11;27.13
53932;BME280;39844;52.496;13.482;2023-05-10T11:45:33;100794.47;;;29.36;27.87
53932;BME280;39844;52.496;13.482;2023-05-10T11:47:59;100786.91;;;29.18;27.34
53932;BME280;39844;52.496;13.482;2023-05-10T11:50:24;100791.31;;;29.19;26.22
53932;BME280;39844;52.496;13.482;2023-05-10T11:52:54;100787.78;;;29.40;28.21
53932;BME280;39844;52.496;13.482;2023-05-10T11:55:19;100791.97;;;29.56;26.25
53932;BME280;39844;52.496;13.482;2023-05-10T11:57:48;100793.31;;;29.50;26.07
53932;BME280;39844;52.496;13.482;2023-05-10T12:00:16;100803.16;;;29.40;26.91
53932;BME280;39844;52.496;13.482;2023-05-10T12:02:41;100786.69;;;29.54;26.69
53932;BME280;39844;52.496;13.482;2023-05-10T12:05:07;100798.09;;;29.58;27.03
53932;BME280;39844;52.496;13.482;2023-05-10T12:07:33;100786.19;;;29.49;25.86
53932;BME280;39844;52.496;13.482;2023-05-10T12:10:12;100797.50;;;29.43;26.47
53932;BME280;39844;52.496;13.482;2023-05-10T12:12:41;100804.72;;;29.09;26.28
53932;BME280;39844;52.496;13.482;2023-05-10T12:15:20;100796.00;;;28.95;24.97
53932;BME280;39844;52.496;13.482;2023-05-10T12:17:47;100798.69;;;28.83;25.16
53932;BME280;39844;52.496;13.482;2023-05-10T12:20:14;100805.09;;;28.83;25.50
53932;BME280;39844;52.496;13.482;2023-05-10T12:22:39;100802.16;;;28.86;26.15
53932;BME280;39844;52.496;13.482;2023-05-10T12:25:05;100807.78;;;28.94;26.01
53932;BME280;39844;52.496;13.482;2023-05-10T12:27:33;100810.97;;;28.99;27.69
53932;BME280;39844;52.496;13.482;2023-05-10T12:29:59;100806.31;;;29.12;26.47
53932;BME280;39844;52.496;13.482;2023-05-10T12:32:40;100803.88;;;29.09;27.07
53932;BME280;39844;52.496;13.482;2023-05-10T12:35:06;100799.97;;;29.24;25.27
53932;BME280;39844;52.496;13.482;2023-05-10T12:37:31;100796.88;;;29.17;25.89
53932;BME280;39844;52.496;13.482;2023-05-10T12:39:56;100788.41;;;29.11;26.05
53932;BME280;39844;52.496;13.482;2023-05-10T12:42:22;100799.22;;;29.11;25.28
53932;BME280;39844;52.496;13.482;2023-05-10T12:44:47;100803.28;;;29.27;25.81
53932;BME280;39844;52.496;13.482;2023-05-10T12:47:12;100803.38;;;29.15;25.41
53932;BME280;39844;52.496;13.482;2023-05-10T12:49:38;100801.06;;;29.10;23.38
53932;BME280;39844;52.496;13.482;2023-05-10T12:52:03;100810.13;;;28.87;23.69
53932;BME280;39844;52.496;13.482;2023-05-10T12:54:28;100805.06;;;28.94;25.08
53932;BME280;39844;52.496;13.482;2023-05-10T12:56:54;100800.94;;;29.01;26.40
53932;BME280;39844;52.496;13.482;2023-05-10T12:59:19;100803.75;;;29.10;26.90
53932;BME280;39844;52.496;13.482;2023-05-10T13:01:44;100801.84;;;29.23;27.24
53932;BME280;39844;52.496;13.482;2023-05-10T13:04:09;100802.94;;;29.21;26.19
53932;BME280;39844;52.496;13.482;2023-05-10T13:06:35;100803.38;;;29.15;24.61
53932;BME280;39844;52.496;13.482;2023-05-10T13:09:00;100801.91;;;29.11;25.91